createdAt,value
2023-01-25T00:01:35.593Z,11.63
2023-01-25T00:04:02.231Z,10.63
2023-01-25T00:06:28.971Z,13.43
2023-01-25T00:08:59.142Z,11.27
2023-01-25T00:11:25.820Z,12.35
2023-01-25T00:13:57.677Z,11.45
2023-01-25T00:16:24.737Z,10.95
2023-01-25T00:18:51.600Z,10.48
2023-01-25T00:21:25.114Z,8.25
2023-01-25T00:26:35.098Z,10.38
2023-01-25T00:29:03.056Z,10.38
2023-01-25T00:31:55.511Z,10.25
2023-01-25T00:34:30.036Z,11.15
2023-01-25T00:37:14.735Z,12.00
2023-01-25T00:39:41.739Z,10.75
2023-01-25T00:42:12.482Z,12.02
2023-01-25T00:44:39.893Z,10.98
2023-01-25T00:47:06.924Z,10.77
2023-01-25T00:49:33.844Z,11.65
2023-01-25T00:52:00.679Z,10.38
2023-01-25T00:54:27.432Z,12.02
2023-01-25T00:56:56.520Z,10.13
2023-01-25T00:59:24.994Z,11.20
2023-01-25T01:01:53.400Z,9.77
2023-01-25T01:04:21.288Z,10.02
2023-01-25T01:06:48.068Z,9.35
2023-01-25T01:09:16.971Z,11.25
2023-01-25T01:11:44.406Z,10.63
2023-01-25T01:16:36.787Z,10.30
2023-01-25T01:19:03.939Z,11.35
2023-01-25T01:21:30.735Z,9.20
2023-01-25T01:23:57.782Z,9.98
2023-01-25T01:26:24.643Z,10.60
2023-01-25T01:28:51.791Z,9.82
2023-01-25T01:31:22.003Z,10.77
2023-01-25T01:33:50.563Z,11.02
2023-01-25T01:36:19.835Z,10.52
2023-01-25T01:38:46.950Z,10.77
2023-01-25T01:41:14.231Z,11.13
2023-01-25T01:43:41.799Z,10.25
2023-01-25T01:46:13.126Z,8.80
2023-01-25T01:49:03.162Z,9.70
2023-01-25T01:51:48.003Z,10.93
2023-01-25T01:54:45.541Z,11.43
2023-01-25T01:57:18.598Z,9.52
2023-01-25T02:00:01.767Z,10.43
2023-01-25T02:02:28.613Z,10.30
2023-01-25T02:05:00.328Z,11.88
2023-01-25T02:07:35.031Z,11.75
2023-01-25T02:10:04.733Z,10.05
2023-01-25T02:12:32.224Z,9.90
2023-01-25T02:14:58.959Z,10.52
2023-01-25T02:17:29.884Z,12.45
2023-01-25T02:20:12.501Z,10.57
2023-01-25T02:23:00.092Z,9.15
2023-01-25T02:28:07.457Z,11.15
2023-01-25T02:30:35.031Z,10.15
2023-01-25T02:33:01.841Z,10.27
2023-01-25T02:35:40.477Z,10.50
2023-01-25T02:38:08.491Z,11.30
2023-01-25T02:40:44.900Z,10.95
2023-01-25T02:43:12.462Z,10.88
2023-01-25T02:45:39.163Z,11.23
2023-01-25T02:48:09.398Z,11.18
2023-01-25T02:50:36.114Z,12.13
2023-01-25T02:53:02.842Z,12.38
2023-01-25T02:55:29.536Z,11.63
2023-01-25T02:57:56.280Z,11.27
2023-01-25T03:00:23.809Z,12.73
2023-01-25T03:02:50.518Z,10.93
2023-01-25T03:05:17.208Z,10.48
2023-01-25T03:07:43.979Z,11.63
2023-01-25T03:12:37.583Z,11.57
2023-01-25T03:15:05.015Z,12.18
2023-01-25T03:17:31.906Z,11.57
2023-01-25T03:19:58.582Z,11.88
2023-01-25T03:22:25.922Z,11.93
2023-01-25T03:24:52.772Z,10.07
2023-01-25T03:27:19.691Z,9.05
2023-01-25T03:29:46.556Z,11.48
2023-01-25T03:32:13.450Z,13.15
2023-01-25T03:34:40.200Z,12.43
2023-01-25T03:37:07.074Z,11.95
2023-01-25T03:39:33.751Z,11.00
2023-01-25T03:42:00.422Z,12.35
2023-01-25T03:44:27.250Z,11.35
2023-01-25T03:46:56.794Z,12.88
2023-01-25T03:49:23.775Z,12.43
2023-01-25T03:51:50.479Z,12.73
2023-01-25T03:54:17.191Z,12.68
2023-01-25T03:56:43.982Z,11.30
2023-01-25T03:59:12.665Z,12.65
2023-01-25T04:01:39.375Z,13.43
2023-01-25T04:04:06.252Z,11.80
2023-01-25T04:06:33.051Z,10.75
2023-01-25T04:08:59.734Z,11.93
2023-01-25T04:11:26.448Z,11.23
2023-01-25T04:13:53.231Z,12.45
2023-01-25T04:16:20.057Z,11.32
2023-01-25T04:18:46.800Z,11.55
2023-01-25T04:21:13.571Z,11.32
2023-01-25T04:23:40.325Z,11.68
2023-01-25T04:26:09.661Z,11.77
2023-01-25T04:28:36.422Z,11.90
2023-01-25T04:31:03.840Z,10.90
2023-01-25T04:33:30.559Z,8.55
2023-01-25T04:35:57.705Z,12.27
2023-01-25T04:38:24.528Z,9.90
2023-01-25T04:40:52.541Z,12.00
2023-01-25T04:43:20.430Z,11.35
2023-01-25T04:45:47.390Z,10.00
2023-01-25T04:48:14.662Z,10.07
2023-01-25T04:50:43.293Z,11.02
2023-01-25T04:53:11.551Z,11.52
2023-01-25T04:55:38.265Z,12.73
2023-01-25T04:58:05.282Z,12.90
2023-01-25T05:00:32.628Z,12.87
2023-01-25T05:02:59.323Z,11.80
2023-01-25T05:05:29.204Z,10.77
2023-01-25T05:07:56.251Z,12.27
2023-01-25T05:10:23.380Z,12.23
2023-01-25T05:12:50.012Z,13.10
2023-01-25T05:15:16.721Z,11.77
2023-01-25T05:17:43.357Z,11.88
2023-01-25T05:22:37.328Z,12.43
2023-01-25T05:25:06.470Z,12.27
2023-01-25T05:27:33.204Z,11.57
2023-01-25T05:29:59.864Z,13.80
2023-01-25T05:32:26.637Z,12.48
2023-01-25T05:34:53.395Z,12.88
2023-01-25T05:37:23.915Z,12.57
2023-01-25T05:39:50.631Z,12.73
2023-01-25T05:42:18.930Z,12.43
2023-01-25T05:44:47.541Z,13.00
2023-01-25T05:47:16.440Z,12.35
2023-01-25T05:49:43.377Z,12.63
2023-01-25T05:52:12.581Z,15.05
2023-01-25T05:54:39.327Z,12.93
2023-01-25T05:57:06.060Z,12.77
2023-01-25T05:59:32.731Z,12.10
2023-01-25T06:01:59.472Z,13.40
2023-01-25T06:04:26.280Z,12.80
2023-01-25T06:06:53.188Z,13.65
2023-01-25T06:09:20.845Z,12.63
2023-01-25T06:11:47.672Z,14.55
2023-01-25T06:14:14.522Z,14.10
2023-01-25T06:16:42.124Z,13.63
2023-01-25T06:19:12.889Z,13.35
2023-01-25T06:21:39.589Z,13.40
2023-01-25T06:24:06.693Z,14.38
2023-01-25T06:26:33.435Z,13.43
2023-01-25T06:29:00.150Z,14.70
2023-01-25T06:31:26.950Z,13.52
2023-01-25T06:33:53.871Z,15.13
2023-01-25T06:36:22.685Z,15.57
2023-01-25T06:38:53.032Z,13.95
2023-01-25T06:41:20.829Z,14.75
2023-01-25T06:43:50.053Z,14.57
2023-01-25T06:46:17.174Z,14.50
2023-01-25T06:48:43.997Z,15.45
2023-01-25T06:51:15.725Z,14.77
2023-01-25T06:53:45.600Z,13.88
2023-01-25T06:56:17.896Z,14.52
2023-01-25T06:58:45.065Z,14.07
2023-01-25T07:01:13.147Z,15.32
2023-01-25T07:03:40.428Z,14.43
2023-01-25T07:06:09.850Z,15.15
2023-01-25T07:08:37.283Z,14.13
2023-01-25T07:11:06.596Z,14.50
2023-01-25T07:13:34.739Z,15.55
2023-01-25T07:16:08.814Z,14.80
2023-01-25T07:18:38.880Z,15.35
2023-01-25T07:21:08.263Z,15.00
2023-01-25T07:23:35.449Z,13.88
2023-01-25T07:26:02.298Z,14.30
2023-01-25T07:28:28.928Z,14.20
2023-01-25T07:30:55.614Z,14.43
2023-01-25T07:33:22.411Z,15.02
2023-01-25T07:35:51.072Z,16.08
2023-01-25T07:38:17.934Z,15.57
2023-01-25T07:40:44.701Z,16.02
2023-01-25T07:45:37.795Z,14.77
2023-01-25T07:50:37.470Z,15.85
2023-01-25T07:53:04.172Z,16.10
2023-01-25T07:55:31.198Z,12.38
2023-01-25T07:57:57.940Z,15.43
2023-01-25T08:00:25.127Z,16.40
2023-01-25T08:02:52.620Z,16.90
2023-01-25T08:05:19.881Z,15.75
2023-01-25T08:07:47.211Z,14.43
2023-01-25T08:10:14.075Z,16.27
2023-01-25T08:12:45.773Z,14.85
2023-01-25T08:15:14.054Z,15.80
2023-01-25T08:17:40.880Z,17.58
2023-01-25T08:20:08.966Z,15.77
2023-01-25T08:22:35.907Z,16.70
2023-01-25T08:25:03.890Z,14.80
2023-01-25T08:27:30.606Z,16.30
2023-01-25T08:29:57.321Z,16.80
2023-01-25T08:32:24.064Z,15.48
2023-01-25T08:34:50.750Z,15.52
2023-01-25T08:37:17.408Z,15.88
2023-01-25T08:39:44.120Z,16.45
2023-01-25T08:44:37.214Z,15.77
2023-01-25T08:47:03.939Z,15.90
2023-01-25T08:49:31.273Z,16.13
2023-01-25T08:51:58.649Z,16.23
2023-01-25T08:54:25.709Z,15.80
2023-01-25T08:56:52.571Z,16.50
2023-01-25T08:59:19.439Z,15.35
2023-01-25T09:01:46.115Z,16.05
2023-01-25T09:04:12.744Z,13.95
2023-01-25T09:06:39.413Z,14.35
2023-01-25T09:09:06.470Z,14.68
2023-01-25T09:11:35.046Z,14.02
2023-01-25T09:14:01.713Z,15.45
2023-01-25T09:16:29.407Z,14.10
2023-01-25T09:19:02.410Z,14.50
2023-01-25T09:21:30.085Z,13.48
2023-01-25T09:24:05.934Z,14.88
2023-01-25T09:26:34.800Z,15.98
2023-01-25T09:29:01.610Z,15.15
2023-01-25T09:31:29.637Z,14.98
2023-01-25T09:33:57.375Z,15.73
2023-01-25T09:36:24.076Z,15.27
2023-01-25T09:38:50.813Z,15.20
2023-01-25T09:41:56.265Z,16.58
2023-01-25T09:44:45.919Z,15.05
2023-01-25T09:47:25.715Z,14.45
2023-01-25T09:52:56.166Z,14.48
2023-01-25T09:55:27.945Z,13.23
2023-01-25T09:57:57.033Z,14.30
2023-01-25T10:00:55.484Z,15.85
2023-01-25T10:03:45.564Z,14.63
2023-01-25T10:06:14.439Z,16.00
2023-01-25T10:08:43.818Z,14.35
2023-01-25T10:11:11.660Z,14.95
2023-01-25T10:13:38.310Z,15.52
2023-01-25T10:16:17.700Z,13.27
2023-01-25T10:18:59.439Z,12.35
2023-01-25T10:21:32.572Z,13.15
2023-01-25T10:26:42.547Z,13.25
2023-01-25T10:29:12.726Z,14.48
2023-01-25T10:31:53.391Z,12.82
2023-01-25T10:34:26.488Z,12.73
2023-01-25T10:37:01.612Z,12.77
2023-01-25T10:39:32.870Z,13.10
2023-01-25T10:42:10.084Z,15.05
2023-01-25T10:44:37.231Z,16.13
2023-01-25T10:47:03.855Z,15.85
2023-01-25T10:49:39.866Z,14.93
2023-01-25T10:52:14.968Z,15.80
2023-01-25T10:54:41.938Z,14.52
2023-01-25T10:57:12.772Z,14.50
2023-01-25T10:59:39.443Z,13.30
2023-01-25T11:02:12.748Z,11.73
2023-01-25T11:04:40.149Z,13.57
2023-01-25T11:07:11.678Z,13.75
2023-01-25T11:09:39.899Z,13.15
2023-01-25T11:12:11.710Z,11.82
2023-01-25T11:14:38.642Z,13.55
2023-01-25T11:17:06.618Z,13.13
2023-01-25T11:19:34.909Z,12.50
2023-01-25T11:22:06.896Z,12.07
2023-01-25T11:24:35.761Z,13.18
2023-01-25T11:27:11.705Z,11.35
2023-01-25T11:29:38.475Z,12.90
2023-01-25T11:32:11.883Z,13.88
2023-01-25T11:34:38.496Z,12.00
2023-01-25T11:37:11.719Z,12.70
2023-01-25T11:39:46.545Z,12.82
2023-01-25T11:42:38.083Z,13.63
2023-01-25T11:45:12.801Z,13.25
2023-01-25T11:47:55.164Z,13.57
2023-01-25T11:50:24.729Z,12.43
2023-01-25T11:53:12.651Z,13.90
2023-01-25T11:55:48.599Z,12.80
2023-01-25T11:58:33.998Z,13.20
2023-01-25T12:01:12.788Z,12.38
2023-01-25T12:04:00.911Z,14.57
2023-01-25T12:06:36.287Z,12.02
2023-01-25T12:09:12.687Z,12.38
2023-01-25T12:12:06.925Z,12.98
2023-01-25T12:14:48.824Z,13.20
2023-01-25T12:17:21.471Z,11.68
2023-01-25T12:20:10.553Z,13.43
2023-01-25T12:22:39.999Z,11.80
2023-01-25T12:28:03.732Z,10.65
2023-01-25T12:30:49.567Z,12.27
2023-01-25T12:33:34.062Z,12.63
2023-01-25T12:36:13.256Z,13.48
2023-01-25T12:39:06.854Z,10.50
2023-01-25T12:42:04.645Z,12.32
2023-01-25T12:44:37.352Z,13.60
2023-01-25T12:49:53.950Z,13.43
2023-01-25T12:52:27.346Z,12.80
2023-01-25T12:55:00.529Z,12.77
2023-01-25T12:57:36.062Z,12.85
2023-01-25T13:00:14.167Z,12.07
2023-01-25T13:02:59.274Z,12.32
2023-01-25T13:05:37.840Z,14.45
2023-01-25T13:08:15.833Z,15.15
2023-01-25T13:10:52.924Z,14.18
2023-01-25T13:13:22.462Z,14.30
2023-01-25T13:15:49.245Z,13.05
2023-01-25T13:18:25.052Z,14.70
2023-01-25T13:20:54.256Z,12.70
2023-01-25T13:23:35.260Z,13.13
2023-01-25T13:26:12.809Z,13.52
2023-01-25T13:28:46.764Z,15.52
2023-01-25T13:31:51.999Z,15.57
2023-01-25T13:34:42.567Z,14.10
2023-01-25T13:37:11.802Z,13.82
2023-01-25T13:39:38.660Z,14.10
2023-01-25T13:42:12.771Z,12.98
2023-01-25T13:44:45.386Z,14.10
2023-01-25T13:47:17.087Z,14.20
2023-01-25T13:49:54.194Z,15.73
2023-01-25T13:52:24.791Z,13.75
2023-01-25T13:54:56.514Z,13.20
2023-01-25T13:57:32.240Z,13.82
2023-01-25T14:00:10.619Z,13.82
2023-01-25T14:02:39.661Z,13.88
2023-01-25T14:05:07.694Z,13.43
2023-01-25T14:07:37.174Z,14.13
2023-01-25T14:10:12.904Z,15.65
2023-01-25T14:12:45.644Z,13.25
2023-01-25T14:15:32.570Z,14.48
2023-01-25T14:20:37.258Z,13.63
2023-01-25T14:23:05.618Z,13.88
2023-01-25T14:25:33.685Z,14.50
2023-01-25T14:28:02.654Z,12.95
2023-01-25T14:30:32.706Z,13.50
2023-01-25T14:33:02.578Z,13.13
2023-01-25T14:35:43.098Z,13.13
2023-01-25T14:38:27.265Z,13.90
2023-01-25T14:40:57.672Z,14.52
2023-01-25T14:43:25.724Z,13.52
2023-01-25T14:45:53.601Z,15.48
2023-01-25T14:48:37.478Z,13.20
2023-01-25T14:51:10.370Z,13.10
2023-01-25T14:53:41.260Z,12.60
2023-01-25T14:56:11.933Z,12.88
2023-01-25T14:58:43.216Z,14.57
2023-01-25T15:01:12.912Z,13.57
2023-01-25T15:03:44.880Z,15.07
2023-01-25T15:06:12.000Z,13.55
2023-01-25T15:08:41.013Z,14.23
2023-01-25T15:11:31.548Z,14.20
2023-01-25T15:14:12.934Z,14.07
2023-01-25T15:16:42.120Z,13.75
2023-01-25T15:19:14.075Z,14.48
2023-01-25T15:21:41.052Z,15.30
2023-01-25T15:24:12.958Z,15.02
2023-01-25T15:26:40.357Z,13.95
2023-01-25T15:31:38.705Z,15.93
2023-01-25T15:34:08.400Z,13.73
2023-01-25T15:36:35.397Z,15.88
2023-01-25T15:39:02.302Z,14.23
2023-01-25T15:41:29.142Z,17.05
2023-01-25T15:43:56.245Z,15.77
2023-01-25T15:46:26.866Z,16.63
2023-01-25T15:48:54.213Z,15.40
2023-01-25T15:51:21.804Z,15.77
2023-01-25T15:53:48.600Z,15.52
2023-01-25T15:56:28.072Z,15.25
2023-01-25T15:58:57.832Z,20.13
2023-01-25T16:01:27.556Z,17.25
2023-01-25T16:03:59.479Z,15.10
2023-01-25T16:06:38.218Z,16.65
2023-01-25T16:09:13.003Z,15.55
2023-01-25T16:11:40.210Z,15.38
2023-01-25T16:14:07.065Z,16.40
2023-01-25T16:16:39.721Z,16.65
2023-01-25T16:19:06.645Z,15.38
2023-01-25T16:21:33.378Z,14.88
2023-01-25T16:24:00.909Z,14.77
2023-01-25T16:26:29.530Z,16.20
2023-01-25T16:28:57.098Z,15.82
2023-01-25T16:31:32.919Z,14.93
2023-01-25T16:34:01.141Z,15.93
2023-01-25T16:36:30.422Z,15.00
2023-01-25T16:39:07.708Z,15.68
2023-01-25T16:41:34.473Z,16.80
2023-01-25T16:44:01.149Z,14.45
2023-01-25T16:46:28.083Z,15.52
2023-01-25T16:48:57.482Z,15.48
2023-01-25T16:51:28.530Z,16.15
2023-01-25T16:53:57.149Z,14.95
2023-01-25T16:56:35.397Z,16.13
2023-01-25T16:59:05.337Z,14.27
2023-01-25T17:01:32.909Z,16.52
2023-01-25T17:04:00.108Z,15.15
2023-01-25T17:06:30.136Z,16.30
2023-01-25T17:09:09.447Z,16.20
2023-01-25T17:11:38.685Z,14.60
2023-01-25T17:14:05.929Z,14.82
2023-01-25T17:16:33.147Z,13.98
2023-01-25T17:21:37.452Z,16.15
2023-01-25T17:24:04.720Z,16.77
2023-01-25T17:26:32.329Z,15.52
2023-01-25T17:29:04.805Z,15.55
2023-01-25T17:31:34.918Z,14.23
2023-01-25T17:34:12.851Z,14.02
2023-01-25T17:36:40.199Z,14.77
2023-01-25T17:39:07.917Z,14.88
2023-01-25T17:41:34.900Z,15.55
2023-01-25T17:44:02.177Z,14.25
2023-01-25T17:46:33.422Z,15.98
2023-01-25T17:49:02.425Z,15.43
2023-01-25T17:51:31.074Z,15.13
2023-01-25T17:53:58.309Z,15.30
2023-01-25T17:56:25.994Z,16.80
2023-01-25T17:58:53.361Z,15.10
2023-01-25T18:01:25.481Z,16.73
2023-01-25T18:03:54.219Z,16.08
2023-01-25T18:06:26.210Z,16.42
2023-01-25T18:08:55.685Z,15.63
2023-01-25T18:11:26.216Z,16.35
2023-01-25T18:13:56.098Z,15.60
2023-01-25T18:16:25.686Z,15.57
2023-01-25T18:18:54.588Z,16.65
2023-01-25T18:21:25.322Z,14.52
2023-01-25T18:23:57.222Z,15.90
2023-01-25T18:26:27.414Z,14.63
2023-01-25T18:28:58.308Z,16.48
2023-01-25T18:31:25.514Z,15.60
2023-01-25T18:33:52.995Z,16.20
2023-01-25T18:36:20.716Z,15.27
2023-01-25T18:38:47.422Z,16.65
2023-01-25T18:41:15.801Z,16.25
2023-01-25T18:43:42.479Z,15.93
2023-01-25T18:48:37.865Z,15.52
2023-01-25T18:51:18.004Z,15.18
2023-01-25T18:53:47.918Z,16.23
2023-01-25T18:56:19.928Z,17.58
2023-01-25T18:58:51.254Z,15.43
2023-01-25T19:01:20.317Z,16.45
2023-01-25T19:03:52.066Z,16.58
2023-01-25T19:06:22.308Z,16.52
2023-01-25T19:08:54.608Z,14.90
2023-01-25T19:11:24.388Z,16.50
2023-01-25T19:13:51.491Z,17.35
2023-01-25T19:16:21.371Z,16.75
2023-01-25T19:18:53.681Z,17.80
2023-01-25T19:21:28.378Z,16.23
2023-01-25T19:23:59.283Z,17.23
2023-01-25T19:26:26.752Z,17.83
2023-01-25T19:29:00.361Z,17.67
2023-01-25T19:31:32.772Z,17.30
2023-01-25T19:34:07.945Z,16.88
2023-01-25T19:36:37.677Z,16.85
2023-01-25T19:41:39.118Z,17.58
2023-01-25T19:44:10.076Z,18.85
2023-01-25T19:46:39.396Z,17.93
2023-01-25T19:49:09.353Z,19.65
2023-01-25T19:51:38.809Z,18.50
2023-01-25T19:54:08.018Z,19.70
2023-01-25T19:56:40.516Z,17.92
2023-01-25T20:01:46.712Z,18.05
2023-01-25T20:04:19.963Z,17.25
2023-01-25T20:06:48.145Z,17.52
2023-01-25T20:09:19.205Z,17.88
2023-01-25T20:11:47.665Z,17.00
2023-01-25T20:14:17.705Z,18.23
2023-01-25T20:16:44.553Z,17.90
2023-01-25T20:19:13.425Z,18.23
2023-01-25T20:21:40.257Z,17.33
2023-01-25T20:24:09.967Z,17.30
2023-01-25T20:26:39.546Z,19.73
2023-01-25T20:29:07.685Z,16.45
2023-01-25T20:31:46.076Z,17.73
2023-01-25T20:34:19.280Z,18.20
2023-01-25T20:36:47.282Z,17.73
2023-01-25T20:39:19.968Z,17.60
2023-01-25T20:41:47.543Z,17.20
2023-01-25T20:44:17.295Z,18.33
2023-01-25T20:46:44.460Z,17.33
2023-01-25T20:49:13.009Z,17.30
2023-01-25T20:51:43.037Z,17.00
2023-01-25T20:56:37.828Z,17.73
2023-01-25T20:59:06.340Z,17.58
2023-01-25T21:01:37.116Z,16.45
2023-01-25T21:04:06.014Z,16.90
2023-01-25T21:06:35.344Z,17.00
2023-01-25T21:09:03.140Z,18.10
2023-01-25T21:11:30.285Z,16.85
2023-01-25T21:13:58.528Z,18.13
2023-01-25T21:16:25.551Z,18.05
2023-01-25T21:18:55.251Z,17.67
2023-01-25T21:21:29.935Z,16.92
2023-01-25T21:24:00.098Z,17.00
2023-01-25T21:26:29.548Z,18.30
2023-01-25T21:28:56.646Z,17.38
2023-01-25T21:31:27.545Z,17.70
2023-01-25T21:33:56.547Z,17.67
2023-01-25T21:36:23.639Z,18.25
2023-01-25T21:39:01.653Z,17.67
2023-01-25T21:41:30.656Z,18.33
2023-01-25T21:44:12.957Z,15.70
2023-01-25T21:46:52.311Z,17.38
2023-01-25T21:49:45.916Z,18.35
2023-01-25T21:52:12.632Z,17.73
2023-01-25T21:54:39.431Z,17.02
2023-01-25T21:59:38.225Z,17.55
2023-01-25T22:02:06.924Z,19.00
2023-01-25T22:04:36.443Z,18.02
2023-01-25T22:07:04.571Z,19.88
2023-01-25T22:09:31.363Z,19.88
2023-01-25T22:11:58.530Z,17.50
2023-01-25T22:14:25.308Z,18.92
2023-01-25T22:16:52.630Z,18.77
2023-01-25T22:19:19.945Z,18.33
2023-01-25T22:21:49.451Z,19.13
2023-01-25T22:24:16.477Z,18.95
2023-01-25T22:27:05.461Z,18.33
2023-01-25T22:29:35.258Z,18.33
2023-01-25T22:32:02.513Z,19.25
2023-01-25T22:34:29.182Z,18.33
2023-01-25T22:36:55.881Z,17.93
2023-01-25T22:39:25.338Z,17.73
2023-01-25T22:41:52.334Z,18.35
2023-01-25T22:44:19.018Z,16.55
2023-01-25T22:46:46.526Z,18.23
2023-01-25T22:49:13.178Z,17.55
2023-01-25T22:51:40.272Z,18.48
2023-01-25T22:54:07.169Z,18.73
2023-01-25T22:56:34.567Z,18.00
2023-01-25T22:59:01.823Z,19.20
2023-01-25T23:01:31.219Z,18.85
2023-01-25T23:03:58.183Z,19.10
2023-01-25T23:06:27.279Z,19.60
2023-01-25T23:08:56.333Z,18.77
2023-01-25T23:11:26.444Z,17.52
2023-01-25T23:16:37.770Z,19.92
2023-01-25T23:19:05.618Z,19.38
2023-01-25T23:21:32.694Z,19.33
2023-01-25T23:24:01.086Z,20.38
2023-01-25T23:26:29.854Z,20.92
2023-01-25T23:28:57.965Z,18.85
2023-01-25T23:31:26.319Z,18.65
2023-01-25T23:33:56.043Z,18.20
2023-01-25T23:36:26.116Z,19.13
2023-01-25T23:38:55.241Z,18.55
2023-01-25T23:41:23.820Z,18.67
2023-01-25T23:43:56.538Z,19.52
2023-01-25T23:46:28.500Z,18.42
2023-01-25T23:48:55.443Z,18.33
2023-01-25T23:51:22.305Z,16.63
2023-01-25T23:53:49.046Z,19.17
2023-01-25T23:56:20.995Z,17.02
2023-01-25T23:58:49.102Z,18.15
